LFRM/LME METAR and TAF weather

Enter ICAO airport designator
Station Type Date Time Source
LFRM METAR 2020/09/22 08:00 UTC NOAA

LFRM 220800Z AUTO VRB02KT 4200 BR OVC005 15/14 Q1013 BECMG CAVOK


Station Type Date Time Source
LFRM Decoded METAR 2020/09/22 08:00 UTC NOAA

Le Mans, France (LFRM) 47-56N 000-12E 52M
Sep 22, 2020 - 04:00 AM EDT / 2020.09.22 0800 UTC
Wind: Variable at 2 MPH (2 KT):0
Visibility: 2 mile(s):0
Sky conditions: overcast
Weather: mist
Temperature: 59 F (15 C)
Dew Point: 57 F (14 C)
Relative Humidity: 93%
Pressure (altimeter): 29.91 in. Hg (1013 hPa)
ob: LFRM 220800Z AUTO VRB02KT 4200 BR OVC005 15/14 Q1013 BECMG CAVOK
cycle: 8

Station Type Date Time Source
LFRM TAF 2020/09/22 08:12 UTC NOAA

TAF TAF
AMD LFRM 220804Z 2208/2306 VRB03KT CAVOK
TEMPO 2208/2210 3000 BR OVC005 PROB40
TEMPO 2208/2209 0500 FG VV///
BECMG 2211/2213 25010KT

Example: see airport list